createdAt,value
2023-01-31T09:51:44.989Z,9.10
2023-01-31T09:54:21.822Z,9.10
2023-01-31T09:57:01.125Z,8.83
2023-01-31T09:59:37.692Z,8.17
2023-01-31T10:02:23.446Z,7.80
2023-01-31T10:05:05.503Z,8.03
2023-01-31T10:07:42.481Z,8.63
2023-01-31T10:10:18.436Z,8.13
2023-01-31T10:12:50.153Z,7.40
2023-01-31T10:15:32.932Z,7.50
2023-01-31T10:18:04.806Z,7.27
2023-01-31T10:20:38.652Z,8.30
2023-01-31T10:23:14.395Z,7.87
2023-01-31T10:25:53.546Z,7.57
2023-01-31T10:28:25.677Z,8.13
2023-01-31T10:31:00.305Z,7.73
2023-01-31T10:33:39.327Z,8.33
2023-01-31T10:36:14.908Z,7.33
2023-01-31T10:38:56.332Z,6.90
2023-01-31T10:41:36.490Z,6.17
2023-01-31T10:44:11.686Z,6.30
2023-01-31T10:46:39.543Z,6.40
2023-01-31T10:49:08.046Z,6.70
2023-01-31T10:51:56.862Z,6.70
2023-01-31T10:54:38.275Z,6.70
2023-01-31T10:57:07.371Z,5.77
2023-01-31T10:59:37.876Z,6.07
2023-01-31T11:02:06.601Z,5.80
2023-01-31T11:04:39.752Z,5.57
2023-01-31T11:07:08.145Z,6.10
2023-01-31T11:09:41.369Z,6.70
2023-01-31T11:12:09.785Z,6.43
2023-01-31T11:14:37.793Z,5.87
2023-01-31T11:17:08.936Z,6.00
2023-01-31T11:19:41.948Z,6.90
2023-01-31T11:22:19.853Z,6.80
2023-01-31T11:24:50.915Z,5.97
2023-01-31T11:27:27.549Z,6.30
2023-01-31T11:30:00.189Z,6.97
2023-01-31T11:32:32.035Z,6.03
2023-01-31T11:35:03.955Z,6.20
2023-01-31T11:37:34.519Z,5.80
2023-01-31T11:40:19.771Z,6.33
2023-01-31T11:42:52.791Z,5.70
2023-01-31T11:45:23.145Z,6.13
2023-01-31T11:47:53.124Z,6.13
2023-01-31T11:50:25.524Z,6.13
2023-01-31T11:52:59.868Z,6.50
2023-01-31T11:55:37.266Z,6.07
2023-01-31T11:58:14.515Z,6.33
2023-01-31T12:00:51.309Z,5.83
2023-01-31T12:03:20.157Z,6.03
2023-01-31T12:05:51.865Z,6.60
2023-01-31T12:08:35.888Z,6.53
2023-01-31T12:11:07.907Z,6.83
2023-01-31T12:13:48.239Z,6.70
2023-01-31T12:16:20.256Z,6.77
2023-01-31T12:19:02.142Z,6.73
2023-01-31T12:21:47.684Z,7.33
2023-01-31T12:24:28.689Z,8.10
2023-01-31T12:27:03.615Z,9.23
2023-01-31T12:29:51.924Z,8.43
2023-01-31T12:32:42.197Z,7.80
2023-01-31T12:35:48.374Z,7.60
2023-01-31T12:38:45.493Z,7.13
2023-01-31T12:41:24.540Z,7.40
2023-01-31T12:44:10.504Z,6.47
2023-01-31T12:46:57.667Z,7.37
2023-01-31T12:49:52.729Z,5.97
2023-01-31T12:52:26.072Z,6.10
2023-01-31T12:55:10.980Z,7.10
2023-01-31T12:57:49.108Z,6.27
2023-01-31T13:00:33.381Z,7.57
2023-01-31T13:03:33.628Z,7.97
2023-01-31T13:06:07.773Z,7.57
2023-01-31T13:08:41.089Z,6.37
2023-01-31T13:11:13.548Z,6.40
2023-01-31T13:13:47.898Z,7.07
2023-01-31T13:16:22.643Z,6.37
2023-01-31T13:18:53.681Z,6.23
2023-01-31T13:21:27.183Z,6.27
2023-01-31T13:23:59.055Z,5.67
2023-01-31T13:26:31.565Z,6.00
2023-01-31T13:29:04.635Z,5.70
2023-01-31T13:31:41.227Z,5.70
2023-01-31T13:34:16.800Z,5.80
2023-01-31T13:36:46.988Z,6.37
2023-01-31T13:39:21.437Z,6.97
2023-01-31T13:41:51.027Z,6.43
2023-01-31T13:44:20.821Z,5.87
2023-01-31T13:46:53.782Z,6.30
2023-01-31T13:49:26.986Z,6.30
2023-01-31T13:51:58.329Z,6.30
2023-01-31T13:54:32.764Z,6.77
2023-01-31T13:57:03.614Z,6.77
2023-01-31T13:59:35.049Z,6.20
2023-01-31T14:02:09.844Z,6.53
2023-01-31T14:04:40.463Z,6.67
2023-01-31T14:07:24.131Z,6.33
2023-01-31T14:10:28.595Z,5.20
2023-01-31T14:13:25.887Z,5.30
2023-01-31T14:15:54.817Z,5.70
2023-01-31T14:18:44.368Z,6.23
2023-01-31T14:21:54.984Z,6.27
2023-01-31T14:25:07.078Z,6.80
2023-01-31T14:28:03.784Z,5.97
2023-01-31T14:30:41.901Z,6.37
2023-01-31T14:33:19.655Z,5.70
2023-01-31T14:36:42.182Z,6.50
2023-01-31T14:39:46.148Z,6.10
2023-01-31T14:42:45.491Z,6.37
2023-01-31T14:45:38.201Z,6.73
2023-01-31T14:48:19.898Z,6.63
2023-01-31T14:51:09.331Z,6.57
2023-01-31T14:53:53.080Z,7.10
2023-01-31T14:56:41.003Z,7.37
2023-01-31T14:59:27.051Z,6.07
2023-01-31T15:01:57.717Z,6.33
2023-01-31T15:04:27.277Z,6.40
2023-01-31T15:06:57.907Z,6.30
2023-01-31T15:09:38.441Z,6.97
2023-01-31T15:12:26.839Z,5.93
2023-01-31T15:14:55.145Z,6.50
2023-01-31T15:17:37.446Z,6.47
2023-01-31T15:20:18.073Z,6.63
2023-01-31T15:22:47.576Z,6.93
2023-01-31T15:25:27.644Z,6.40
2023-01-31T15:27:57.855Z,6.77
2023-01-31T15:30:29.067Z,6.67
2023-01-31T15:33:03.065Z,6.57
2023-01-31T15:35:33.196Z,6.57
2023-01-31T15:38:05.723Z,8.13
2023-01-31T15:40:34.139Z,7.10
2023-01-31T15:43:18.457Z,7.23
2023-01-31T15:45:47.919Z,6.70
2023-01-31T15:48:18.828Z,7.37
2023-01-31T15:50:52.110Z,7.43
2023-01-31T15:53:22.379Z,6.93
2023-01-31T15:55:53.542Z,7.97
2023-01-31T15:58:24.893Z,7.10
2023-01-31T16:00:54.729Z,7.00
2023-01-31T16:03:26.048Z,6.33
2023-01-31T16:05:55.899Z,6.53
2023-01-31T16:08:29.755Z,6.50
2023-01-31T16:11:02.449Z,7.73
2023-01-31T16:13:34.871Z,7.73
2023-01-31T16:16:04.630Z,7.27
2023-01-31T16:18:34.900Z,6.60
2023-01-31T16:21:15.899Z,7.37
2023-01-31T16:23:44.397Z,7.73
2023-01-31T16:26:16.867Z,8.20
2023-01-31T16:28:50.448Z,6.97
2023-01-31T16:31:21.754Z,7.63
2023-01-31T16:33:54.939Z,9.00
2023-01-31T16:36:25.999Z,6.57
2023-01-31T16:38:58.994Z,7.67
2023-01-31T16:41:46.673Z,7.23
2023-01-31T16:44:18.701Z,7.30
2023-01-31T16:46:48.754Z,7.53
2023-01-31T16:49:28.036Z,7.13
2023-01-31T16:51:58.056Z,7.57
2023-01-31T16:54:26.946Z,7.40
2023-01-31T16:57:09.485Z,7.20
2023-01-31T16:59:45.640Z,7.90
2023-01-31T17:02:21.186Z,7.80
2023-01-31T17:04:52.789Z,7.93
2023-01-31T17:07:25.538Z,7.20
2023-01-31T17:10:00.194Z,8.13
2023-01-31T17:12:41.117Z,7.87
2023-01-31T17:15:22.655Z,6.83
2023-01-31T17:17:55.173Z,7.70
2023-01-31T17:20:43.804Z,7.67
2023-01-31T17:23:16.888Z,7.50
2023-01-31T17:25:47.009Z,6.90
2023-01-31T17:28:20.763Z,7.07
2023-01-31T17:30:49.319Z,6.47
2023-01-31T17:33:23.573Z,9.50
2023-01-31T17:35:56.296Z,7.87
2023-01-31T17:38:38.562Z,7.97
2023-01-31T17:41:11.407Z,7.80
2023-01-31T17:43:45.287Z,7.03
2023-01-31T17:46:24.569Z,7.77
2023-01-31T17:48:53.365Z,8.00
2023-01-31T17:51:31.812Z,8.47
